Loenerborg — PCHH — position and weather

sailwx.info

Track history (hours):
 
Tides and Currents Weather Stations Pressure Air Temp Water Temp Dewpoint Dewpoint Depression Visibility Wind Speed Wind Dir Waves Ship Positions

Loenerborg

Last reported at 2017-Dec-10 22:51 UTC. Time now 2017-Dec-11 02:20 UTC.
Position N 57°44' E 010°16'.

Length 108 m; draft 6.9 m.

Type: Cargo ship. MMSI: 244710117.

Date/timePositionNaut miles runAvg speedWind from/ knotsBaromVisibWave heightAir tempDewpointWater temp
2017-Dec-10 22:51N 57°44' E 010°16'410.6
2017-Dec-10 22:30N 57°45' E 010°23'510.7
2017-Dec-10 22:00N 57°48' E 010°32'510.8
2017-Dec-10 21:30N 57°48' E 010°42'4 8.4
2017-Dec-10 21:00N 57°45' E 010°46'5 9.8
2017-Dec-10 20:30N 57°41' E 010°40'0 0.6
2017-Dec-10 19:58N 57°42' E 010°39'0 0.1
2017-Dec-10 19:25N 57°41' E 010°40'1 1.5
2017-Dec-10 19:00N 57°41' E 010°40'5 9.4
2017-Dec-10 18:30N 57°39' E 010°48'510.9
2017-Dec-10 18:00N 57°36' E 010°57'611.1
2017-Dec-10 17:31N 57°34' E 011°06'611.2
2017-Dec-10 17:01N 57°31' E 011°15'611.1
2017-Dec-10 16:31N 57°29' E 011°24'510.7
2017-Dec-10 16:00N 57°24' E 011°29'510.8
2017-Dec-10 15:31N 57°19' E 011°32'611.3
2017-Dec-10 15:01N 57°13' E 011°35'611.4
2017-Dec-10 14:30N 57°08' E 011°39'5910.3
2017-Dec-10 08:51N 56°13' E 012°17'410.5
2017-Dec-10 08:31N 56°11' E 012°23'510.7
2017-Dec-10 08:00N 56°08' E 012°30'611.2
2017-Dec-10 07:31N 56°04' E 012°38'611.2
2017-Dec-10 07:01N 55°59' E 012°42'510.8
2017-Dec-10 06:31N 55°54' E 012°44'510.7
2017-Dec-10 06:01N 55°49' E 012°44'510.7
2017-Dec-10 05:30N 55°44' E 012°41'510.2
2017-Dec-10 05:01N 55°38' E 012°42'5 9.1
2017-Dec-10 04:31N 55°34' E 012°42'5 9.8
2017-Dec-10 04:01N 55°29' E 012°42'510.8
2017-Dec-10 03:31N 55°24' E 012°41'510.5
2017-Dec-10 03:01N 55°18' E 012°41'5 9.7
2017-Dec-10 02:29N 55°17' E 012°49'4 8.9
2017-Dec-10 02:00N 55°16' E 012°56'28 8.3
2017-Dec-09 22:38N 55°14' E 013°46'4 7.9
2017-Dec-09 22:11N 55°14' E 013°52'3 8.3
2017-Dec-09 21:48N 55°14' E 013°57'8 8.3
2017-Dec-09 20:52N 55°14' E 014°11'5 8.0
2017-Dec-09 20:14N 55°15' E 014°19'6 8.9
2017-Dec-09 19:34N 55°20' E 014°26'1 9.2
2017-Dec-09 19:28N 55°21' E 014°27'5 9.6
2017-Dec-09 18:55N 55°25' E 014°33'10 9.3
2017-Dec-09 17:52N 55°30' E 014°47'4 9.4
2017-Dec-09 17:27N 55°32' E 014°53'13 9.5
2017-Dec-09 16:08N 55°39' E 015°12'1 9.3
2017-Dec-09 16:00N 55°39' E 015°14'5 9.2
2017-Dec-09 15:31N 55°42' E 015°21'4 8.9
2017-Dec-09 15:01N 55°44' E 015°28'4 8.7
2017-Dec-09 14:31N 55°46' E 015°34'4 8.2
2017-Dec-09 14:01N 55°48' E 015°41'4 7.4
2017-Dec-09 13:31N 55°50' E 015°46'3 6.8
2017-Dec-09 13:01N 55°52' E 015°52'3 6.7
2017-Dec-09 12:31N 55°53' E 015°57'3 6.1
2017-Dec-09 12:01N 55°55' E 016°01'3 5.4
2017-Dec-09 11:31N 55°56' E 016°06'2 4.7
2017-Dec-09 11:01N 55°57' E 016°09'2 4.2
2017-Dec-09 10:31N 55°58' E 016°12'2 3.6
2017-Dec-09 10:01N 55°59' E 016°15'2 3.5
2017-Dec-09 09:31N 56°00' E 016°18'2 3.8
2017-Dec-09 09:01N 56°01' E 016°21'2 3.2
2017-Dec-09 08:30N 56°02' E 016°23'5 3.9
2017-Dec-09 07:13N 56°05' E 016°31'248 6.4
2017-Dec-07 16:34N 59°54' E 019°28'210.0
2017-Dec-07 16:21N 59°56' E 019°25'410.1
2017-Dec-07 15:56N 59°59' E 019°20'410.1
2017-Dec-07 15:30N 60°02' E 019°14'510.5
2017-Dec-07 15:00N 60°06' E 019°08'4 8.8
2017-Dec-07 14:31N 60°10' E 019°02'5 9.5
2017-Dec-07 14:01N 60°14' E 018°60'5 9.0
2017-Dec-07 13:26N 60°20' E 019°00'  
2017-Dec-02 23:08N 60°26' E 019°03'111.0
2017-Dec-02 23:00N 60°25' E 019°02'611.3
2017-Dec-02 22:30N 60°19' E 019°02'611.3
2017-Dec-02 22:00N 60°13' E 019°04'911.0
2017-Dec-02 21:10N 60°06' E 019°15'211.0
2017-Dec-02 20:56N 60°04' E 019°18'267 9.2
2017-Dec-01 16:03N 55°55' E 016°19'110.9
2017-Dec-01 16:00N 55°54' E 016°18'510.8
2017-Dec-01 15:30N 55°52' E 016°10'510.9
2017-Dec-01 15:00N 55°49' E 016°02'510.8
2017-Dec-01 14:30N 55°47' E 015°53'510.7
2017-Dec-01 14:00N 55°44' E 015°45'810.9
2017-Dec-01 13:14N 55°40' E 015°31'211.1
2017-Dec-01 13:00N 55°39' E 015°27'611.0
2017-Dec-01 12:30N 55°36' E 015°19'810.8
2017-Dec-01 11:45N 55°32' E 015°07'310.8
2017-Dec-01 11:30N 55°31' E 015°02'610.8
2017-Dec-01 10:54N 55°28' E 014°52'410.7
2017-Dec-01 10:30N 55°26' E 014°46'510.7
2017-Dec-01 10:00N 55°23' E 014°38'510.6
2017-Dec-01 09:30N 55°19' E 014°31'510.6
2017-Dec-01 09:00N 55°15' E 014°26'510.4
2017-Dec-01 08:29N 55°11' E 014°19'3111.5
2017-Dec-01 05:50N 55°12' E 013°26'1911.9
2017-Dec-01 04:12N 55°15' E 012°52'511.5
2017-Dec-01 03:43N 55°17' E 012°43'311.9
2017-Dec-01 03:30N 55°18' E 012°39'511.2
2017-Dec-01 03:00N 55°23' E 012°39'611.9
2017-Dec-01 02:30N 55°29' E 012°41'510.9
2017-Dec-01 02:00N 55°35' E 012°42'510.4
2017-Dec-01 01:30N 55°40' E 012°41'611.1
2017-Dec-01 01:00N 55°45' E 012°41'510.7
2017-Dec-01 00:30N 55°51' E 012°41'611.3
2017-Dec-01 00:00N 55°56' E 012°38'510.9
2017-Nov-30 23:30N 56°01' E 012°38'4 8.5
2017-Nov-30 23:00N 56°05' E 012°34'  
Track history (hours):
 
Tides and Currents Weather Stations Pressure Air Temp Water Temp Dewpoint Dewpoint Depression Visibility Wind Speed Wind Dir Waves Ship Positions

Loenerborg

Last reported at 2017-Dec-10 22:51 UTC. Time now 2017-Dec-11 02:20 UTC.
Position N 57°44' E 010°16'.

Length 108 m; draft 6.9 m.

Type: Cargo ship. MMSI: 244710117.

Date/timePositionNaut miles runAvg speedWind from/ knotsBaromVisibWave heightAir tempDewpointWater temp
2017-Dec-10 22:51N 57°44' E 010°16'410.6
2017-Dec-10 22:30N 57°45' E 010°23'510.7
2017-Dec-10 22:00N 57°48' E 010°32'510.8
2017-Dec-10 21:30N 57°48' E 010°42'4 8.4
2017-Dec-10 21:00N 57°45' E 010°46'5 9.8
2017-Dec-10 20:30N 57°41' E 010°40'0 0.6
2017-Dec-10 19:58N 57°42' E 010°39'0 0.1
2017-Dec-10 19:25N 57°41' E 010°40'1 1.5
2017-Dec-10 19:00N 57°41' E 010°40'5 9.4
2017-Dec-10 18:30N 57°39' E 010°48'510.9
2017-Dec-10 18:00N 57°36' E 010°57'611.1
2017-Dec-10 17:31N 57°34' E 011°06'611.2
2017-Dec-10 17:01N 57°31' E 011°15'611.1
2017-Dec-10 16:31N 57°29' E 011°24'510.7
2017-Dec-10 16:00N 57°24' E 011°29'510.8
2017-Dec-10 15:31N 57°19' E 011°32'611.3
2017-Dec-10 15:01N 57°13' E 011°35'611.4
2017-Dec-10 14:30N 57°08' E 011°39'5910.3
2017-Dec-10 08:51N 56°13' E 012°17'410.5
2017-Dec-10 08:31N 56°11' E 012°23'510.7
2017-Dec-10 08:00N 56°08' E 012°30'611.2
2017-Dec-10 07:31N 56°04' E 012°38'611.2
2017-Dec-10 07:01N 55°59' E 012°42'510.8
2017-Dec-10 06:31N 55°54' E 012°44'510.7
2017-Dec-10 06:01N 55°49' E 012°44'510.7
2017-Dec-10 05:30N 55°44' E 012°41'510.2
2017-Dec-10 05:01N 55°38' E 012°42'5 9.1
2017-Dec-10 04:31N 55°34' E 012°42'5 9.8
2017-Dec-10 04:01N 55°29' E 012°42'510.8
2017-Dec-10 03:31N 55°24' E 012°41'510.5
2017-Dec-10 03:01N 55°18' E 012°41'5 9.7
2017-Dec-10 02:29N 55°17' E 012°49'4 8.9
2017-Dec-10 02:00N 55°16' E 012°56'28 8.3
2017-Dec-09 22:38N 55°14' E 013°46'4 7.9
2017-Dec-09 22:11N 55°14' E 013°52'3 8.3
2017-Dec-09 21:48N 55°14' E 013°57'8 8.3
2017-Dec-09 20:52N 55°14' E 014°11'5 8.0
2017-Dec-09 20:14N 55°15' E 014°19'6 8.9
2017-Dec-09 19:34N 55°20' E 014°26'1 9.2
2017-Dec-09 19:28N 55°21' E 014°27'5 9.6
2017-Dec-09 18:55N 55°25' E 014°33'10 9.3
2017-Dec-09 17:52N 55°30' E 014°47'4 9.4
2017-Dec-09 17:27N 55°32' E 014°53'13 9.5
2017-Dec-09 16:08N 55°39' E 015°12'1 9.3
2017-Dec-09 16:00N 55°39' E 015°14'5 9.2
2017-Dec-09 15:31N 55°42' E 015°21'4 8.9
2017-Dec-09 15:01N 55°44' E 015°28'4 8.7
2017-Dec-09 14:31N 55°46' E 015°34'4 8.2
2017-Dec-09 14:01N 55°48' E 015°41'4 7.4
2017-Dec-09 13:31N 55°50' E 015°46'3 6.8
2017-Dec-09 13:01N 55°52' E 015°52'3 6.7
2017-Dec-09 12:31N 55°53' E 015°57'3 6.1
2017-Dec-09 12:01N 55°55' E 016°01'3 5.4
2017-Dec-09 11:31N 55°56' E 016°06'2 4.7
2017-Dec-09 11:01N 55°57' E 016°09'2 4.2
2017-Dec-09 10:31N 55°58' E 016°12'2 3.6
2017-Dec-09 10:01N 55°59' E 016°15'2 3.5
2017-Dec-09 09:31N 56°00' E 016°18'2 3.8
2017-Dec-09 09:01N 56°01' E 016°21'2 3.2
2017-Dec-09 08:30N 56°02' E 016°23'5 3.9
2017-Dec-09 07:13N 56°05' E 016°31'248 6.4
2017-Dec-07 16:34N 59°54' E 019°28'210.0
2017-Dec-07 16:21N 59°56' E 019°25'410.1
2017-Dec-07 15:56N 59°59' E 019°20'410.1
2017-Dec-07 15:30N 60°02' E 019°14'510.5
2017-Dec-07 15:00N 60°06' E 019°08'4 8.8
2017-Dec-07 14:31N 60°10' E 019°02'5 9.5
2017-Dec-07 14:01N 60°14' E 018°60'5 9.0
2017-Dec-07 13:26N 60°20' E 019°00'  
2017-Dec-02 23:08N 60°26' E 019°03'111.0
2017-Dec-02 23:00N 60°25' E 019°02'611.3
2017-Dec-02 22:30N 60°19' E 019°02'611.3
2017-Dec-02 22:00N 60°13' E 019°04'911.0
2017-Dec-02 21:10N 60°06' E 019°15'211.0
2017-Dec-02 20:56N 60°04' E 019°18'267 9.2
2017-Dec-01 16:03N 55°55' E 016°19'110.9
2017-Dec-01 16:00N 55°54' E 016°18'510.8
2017-Dec-01 15:30N 55°52' E 016°10'510.9
2017-Dec-01 15:00N 55°49' E 016°02'510.8
2017-Dec-01 14:30N 55°47' E 015°53'510.7
2017-Dec-01 14:00N 55°44' E 015°45'810.9
2017-Dec-01 13:14N 55°40' E 015°31'211.1
2017-Dec-01 13:00N 55°39' E 015°27'611.0
2017-Dec-01 12:30N 55°36' E 015°19'810.8
2017-Dec-01 11:45N 55°32' E 015°07'310.8
2017-Dec-01 11:30N 55°31' E 015°02'610.8
2017-Dec-01 10:54N 55°28' E 014°52'410.7
2017-Dec-01 10:30N 55°26' E 014°46'510.7
2017-Dec-01 10:00N 55°23' E 014°38'510.6
2017-Dec-01 09:30N 55°19' E 014°31'510.6
2017-Dec-01 09:00N 55°15' E 014°26'510.4
2017-Dec-01 08:29N 55°11' E 014°19'3111.5
2017-Dec-01 05:50N 55°12' E 013°26'1911.9
2017-Dec-01 04:12N 55°15' E 012°52'511.5
2017-Dec-01 03:43N 55°17' E 012°43'311.9
2017-Dec-01 03:30N 55°18' E 012°39'511.2
2017-Dec-01 03:00N 55°23' E 012°39'611.9
2017-Dec-01 02:30N 55°29' E 012°41'510.9
2017-Dec-01 02:00N 55°35' E 012°42'510.4
2017-Dec-01 01:30N 55°40' E 012°41'611.1
2017-Dec-01 01:00N 55°45' E 012°41'510.7
2017-Dec-01 00:30N 55°51' E 012°41'611.3
2017-Dec-01 00:00N 55°56' E 012°38'510.9
2017-Nov-30 23:30N 56°01' E 012°38'4 8.5
2017-Nov-30 23:00N 56°05' E 012°34'  

Dump ship's entire track history